sensor_id;sensor_type;location;lat;lon;timestamp;P1;durP1;ratioP1;P2;durP2;ratioP2
30010;SDS011;16851;53.564;8.112;2024-03-08T00:01:30;38.07;;;23.37;;
30010;SDS011;16851;53.564;8.112;2024-03-08T00:06:35;38.10;;;23.07;;
30010;SDS011;16851;53.564;8.112;2024-03-08T00:11:37;37.83;;;24.00;;
30010;SDS011;16851;53.564;8.112;2024-03-08T00:16:42;34.53;;;21.93;;
30010;SDS011;16851;53.564;8.112;2024-03-08T00:21:48;39.23;;;23.87;;
30010;SDS011;16851;53.564;8.112;2024-03-08T00:26:52;40.27;;;24.27;;
30010;SDS011;16851;53.564;8.112;2024-03-08T00:31:59;40.10;;;24.50;;
30010;SDS011;16851;53.564;8.112;2024-03-08T00:37:03;41.00;;;25.70;;
30010;SDS011;16851;53.564;8.112;2024-03-08T00:42:08;38.00;;;24.07;;
30010;SDS011;16851;53.564;8.112;2024-03-08T00:47:12;42.80;;;25.50;;
30010;SDS011;16851;53.564;8.112;2024-03-08T00:52:19;39.20;;;23.43;;
30010;SDS011;16851;53.564;8.112;2024-03-08T00:57:23;41.10;;;23.97;;
30010;SDS011;16851;53.564;8.112;2024-03-08T01:02:25;44.17;;;25.27;;
30010;SDS011;16851;53.564;8.112;2024-03-08T01:07:29;39.63;;;23.87;;
30010;SDS011;16851;53.564;8.112;2024-03-08T01:12:34;40.10;;;24.67;;
30010;SDS011;16851;53.564;8.112;2024-03-08T01:17:36;42.43;;;25.77;;
30010;SDS011;16851;53.564;8.112;2024-03-08T01:22:40;39.10;;;25.07;;
30010;SDS011;16851;53.564;8.112;2024-03-08T01:27:42;43.03;;;23.73;;
30010;SDS011;16851;53.564;8.112;2024-03-08T01:32:47;42.40;;;26.30;;
30010;SDS011;16851;53.564;8.112;2024-03-08T01:37:49;41.03;;;24.93;;
30010;SDS011;16851;53.564;8.112;2024-03-08T01:42:51;37.57;;;24.33;;
30010;SDS011;16851;53.564;8.112;2024-03-08T01:47:54;37.50;;;24.47;;
30010;SDS011;16851;53.564;8.112;2024-03-08T01:52:56;42.37;;;25.50;;
30010;SDS011;16851;53.564;8.112;2024-03-08T01:58:01;38.83;;;24.63;;
30010;SDS011;16851;53.564;8.112;2024-03-08T02:03:07;41.63;;;25.13;;
30010;SDS011;16851;53.564;8.112;2024-03-08T02:08:27;42.23;;;26.33;;
30010;SDS011;16851;53.564;8.112;2024-03-08T02:13:33;44.13;;;26.17;;
30010;SDS011;16851;53.564;8.112;2024-03-08T02:18:36;39.87;;;25.30;;
30010;SDS011;16851;53.564;8.112;2024-03-08T02:23:39;43.43;;;28.10;;
30010;SDS011;16851;53.564;8.112;2024-03-08T02:28:44;44.87;;;27.63;;
30010;SDS011;16851;53.564;8.112;2024-03-08T02:33:50;48.63;;;28.83;;
30010;SDS011;16851;53.564;8.112;2024-03-08T02:38:56;51.20;;;28.40;;
30010;SDS011;16851;53.564;8.112;2024-03-08T02:44:02;49.03;;;29.33;;
30010;SDS011;16851;53.564;8.112;2024-03-08T02:49:05;48.27;;;29.43;;
30010;SDS011;16851;53.564;8.112;2024-03-08T02:54:09;51.40;;;31.20;;
30010;SDS011;16851;53.564;8.112;2024-03-08T02:59:16;52.53;;;30.80;;
30010;SDS011;16851;53.564;8.112;2024-03-08T03:04:21;52.20;;;31.20;;
30010;SDS011;16851;53.564;8.112;2024-03-08T03:09:25;51.60;;;29.23;;
30010;SDS011;16851;53.564;8.112;2024-03-08T03:14:29;56.50;;;32.90;;
30010;SDS011;16851;53.564;8.112;2024-03-08T03:19:37;57.37;;;30.40;;
30010;SDS011;16851;53.564;8.112;2024-03-08T03:24:40;50.83;;;30.30;;
30010;SDS011;16851;53.564;8.112;2024-03-08T03:29:44;56.63;;;32.57;;
30010;SDS011;16851;53.564;8.112;2024-03-08T03:34:51;55.67;;;31.20;;
30010;SDS011;16851;53.564;8.112;2024-03-08T03:39:56;54.60;;;32.93;;
30010;SDS011;16851;53.564;8.112;2024-03-08T03:45:00;54.27;;;32.10;;
30010;SDS011;16851;53.564;8.112;2024-03-08T03:50:05;55.57;;;32.23;;
30010;SDS011;16851;53.564;8.112;2024-03-08T03:55:08;53.47;;;30.70;;
30010;SDS011;16851;53.564;8.112;2024-03-08T04:00:13;54.50;;;30.40;;
30010;SDS011;16851;53.564;8.112;2024-03-08T04:05:15;53.03;;;31.70;;
30010;SDS011;16851;53.564;8.112;2024-03-08T04:10:19;56.33;;;32.80;;
30010;SDS011;16851;53.564;8.112;2024-03-08T04:15:25;57.03;;;31.10;;
30010;SDS011;16851;53.564;8.112;2024-03-08T04:20:30;52.43;;;31.63;;
30010;SDS011;16851;53.564;8.112;2024-03-08T04:25:37;56.57;;;32.07;;
30010;SDS011;16851;53.564;8.112;2024-03-08T04:30:52;53.42;;;36.40;;
30010;SDS011;16851;53.564;8.112;2024-03-08T04:35:53;59.20;;;33.73;;
30010;SDS011;16851;53.564;8.112;2024-03-08T04:40:55;55.07;;;32.13;;
30010;SDS011;16851;53.564;8.112;2024-03-08T04:45:59;57.00;;;33.03;;
30010;SDS011;16851;53.564;8.112;2024-03-08T04:51:03;51.90;;;31.97;;
30010;SDS011;16851;53.564;8.112;2024-03-08T04:56:05;56.33;;;33.23;;
30010;SDS011;16851;53.564;8.112;2024-03-08T05:01:08;56.47;;;32.70;;
30010;SDS011;16851;53.564;8.112;2024-03-08T05:06:16;59.83;;;33.50;;
30010;SDS011;16851;53.564;8.112;2024-03-08T05:11:18;59.50;;;33.60;;
30010;SDS011;16851;53.564;8.112;2024-03-08T05:16:22;59.33;;;32.53;;
30010;SDS011;16851;53.564;8.112;2024-03-08T05:21:27;62.00;;;33.63;;
30010;SDS011;16851;53.564;8.112;2024-03-08T05:26:31;62.17;;;32.73;;
30010;SDS011;16851;53.564;8.112;2024-03-08T05:31:43;59.23;;;32.47;;
30010;SDS011;16851;53.564;8.112;2024-03-08T05:36:48;58.20;;;32.20;;
30010;SDS011;16851;53.564;8.112;2024-03-08T05:41:56;61.97;;;34.13;;
30010;SDS011;16851;53.564;8.112;2024-03-08T05:46:58;59.97;;;34.23;;
30010;SDS011;16851;53.564;8.112;2024-03-08T05:52:02;60.73;;;32.97;;
30010;SDS011;16851;53.564;8.112;2024-03-08T05:57:07;57.93;;;37.33;;
30010;SDS011;16851;53.564;8.112;2024-03-08T06:02:09;64.57;;;39.90;;
30010;SDS011;16851;53.564;8.112;2024-03-08T06:07:10;61.50;;;35.53;;
30010;SDS011;16851;53.564;8.112;2024-03-08T06:12:19;58.73;;;32.63;;
30010;SDS011;16851;53.564;8.112;2024-03-08T06:17:26;61.93;;;32.93;;
30010;SDS011;16851;53.564;8.112;2024-03-08T06:22:28;59.27;;;32.03;;
30010;SDS011;16851;53.564;8.112;2024-03-08T06:27:32;56.00;;;30.83;;
30010;SDS011;16851;53.564;8.112;2024-03-08T06:32:36;57.60;;;31.20;;
30010;SDS011;16851;53.564;8.112;2024-03-08T06:37:38;56.27;;;31.73;;
30010;SDS011;16851;53.564;8.112;2024-03-08T06:42:41;57.70;;;31.83;;
30010;SDS011;16851;53.564;8.112;2024-03-08T06:47:45;58.93;;;32.20;;
30010;SDS011;16851;53.564;8.112;2024-03-08T06:52:49;58.47;;;32.67;;
30010;SDS011;16851;53.564;8.112;2024-03-08T06:57:55;61.83;;;32.07;;
30010;SDS011;16851;53.564;8.112;2024-03-08T07:02:58;54.33;;;31.60;;
30010;SDS011;16851;53.564;8.112;2024-03-08T07:08:04;54.63;;;30.90;;
30010;SDS011;16851;53.564;8.112;2024-03-08T07:13:08;54.60;;;31.77;;
30010;SDS011;16851;53.564;8.112;2024-03-08T07:18:14;52.27;;;30.47;;
30010;SDS011;16851;53.564;8.112;2024-03-08T07:23:18;50.57;;;29.50;;
30010;SDS011;16851;53.564;8.112;2024-03-08T07:28:43;52.73;;;29.97;;
30010;SDS011;16851;53.564;8.112;2024-03-08T07:33:45;50.90;;;30.70;;
30010;SDS011;16851;53.564;8.112;2024-03-08T07:38:47;47.43;;;29.47;;
30010;SDS011;16851;53.564;8.112;2024-03-08T07:43:52;46.40;;;28.57;;
30010;SDS011;16851;53.564;8.112;2024-03-08T07:48:54;45.97;;;28.37;;
30010;SDS011;16851;53.564;8.112;2024-03-08T07:53:55;48.13;;;28.83;;
30010;SDS011;16851;53.564;8.112;2024-03-08T07:59:02;47.37;;;28.40;;
30010;SDS011;16851;53.564;8.112;2024-03-08T08:04:07;49.57;;;28.53;;
30010;SDS011;16851;53.564;8.112;2024-03-08T08:09:13;47.67;;;28.43;;
30010;SDS011;16851;53.564;8.112;2024-03-08T08:14:15;41.50;;;27.10;;
30010;SDS011;16851;53.564;8.112;2024-03-08T08:19:17;43.20;;;27.03;;
30010;SDS011;16851;53.564;8.112;2024-03-08T08:24:22;45.33;;;27.07;;
30010;SDS011;16851;53.564;8.112;2024-03-08T08:29:24;39.17;;;27.10;;
30010;SDS011;16851;53.564;8.112;2024-03-08T08:34:26;42.83;;;26.20;;
30010;SDS011;16851;53.564;8.112;2024-03-08T08:39:33;41.57;;;25.17;;
30010;SDS011;16851;53.564;8.112;2024-03-08T08:44:41;41.03;;;24.57;;
30010;SDS011;16851;53.564;8.112;2024-03-08T08:49:43;39.17;;;24.83;;
30010;SDS011;16851;53.564;8.112;2024-03-08T08:54:46;36.73;;;24.13;;
30010;SDS011;16851;53.564;8.112;2024-03-08T08:59:51;38.10;;;23.13;;
30010;SDS011;16851;53.564;8.112;2024-03-08T09:04:52;33.50;;;23.00;;
30010;SDS011;16851;53.564;8.112;2024-03-08T09:09:54;36.47;;;23.50;;
30010;SDS011;16851;53.564;8.112;2024-03-08T09:15:00;36.40;;;23.50;;
30010;SDS011;16851;53.564;8.112;2024-03-08T09:20:05;32.47;;;23.13;;
30010;SDS011;16851;53.564;8.112;2024-03-08T09:25:13;35.30;;;22.53;;
30010;SDS011;16851;53.564;8.112;2024-03-08T09:30:15;34.50;;;22.93;;
30010;SDS011;16851;53.564;8.112;2024-03-08T09:35:17;33.37;;;23.23;;
30010;SDS011;16851;53.564;8.112;2024-03-08T09:40:21;33.47;;;21.50;;
30010;SDS011;16851;53.564;8.112;2024-03-08T09:45:25;33.10;;;22.00;;
30010;SDS011;16851;53.564;8.112;2024-03-08T09:50:28;32.03;;;21.33;;
30010;SDS011;16851;53.564;8.112;2024-03-08T09:55:32;30.17;;;20.50;;
30010;SDS011;16851;53.564;8.112;2024-03-08T10:00:39;32.10;;;20.43;;
30010;SDS011;16851;53.564;8.112;2024-03-08T10:05:42;28.97;;;20.33;;
30010;SDS011;16851;53.564;8.112;2024-03-08T10:10:46;31.97;;;21.23;;
30010;SDS011;16851;53.564;8.112;2024-03-08T10:15:51;34.50;;;21.80;;
30010;SDS011;16851;53.564;8.112;2024-03-08T10:21:07;33.60;;;22.07;;
30010;SDS011;16851;53.564;8.112;2024-03-08T10:26:15;33.57;;;21.93;;
30010;SDS011;16851;53.564;8.112;2024-03-08T10:31:20;34.07;;;22.17;;
30010;SDS011;16851;53.564;8.112;2024-03-08T10:36:22;30.03;;;21.37;;
30010;SDS011;16851;53.564;8.112;2024-03-08T10:41:29;44.67;;;28.00;;
30010;SDS011;16851;53.564;8.112;2024-03-08T10:46:52;34.33;;;21.73;;
30010;SDS011;16851;53.564;8.112;2024-03-08T10:52:13;30.43;;;22.20;;
30010;SDS011;16851;53.564;8.112;2024-03-08T10:57:20;35.57;;;22.10;;
30010;SDS011;16851;53.564;8.112;2024-03-08T11:02:25;34.57;;;22.80;;
30010;SDS011;16851;53.564;8.112;2024-03-08T11:07:33;31.10;;;21.93;;
30010;SDS011;16851;53.564;8.112;2024-03-08T11:12:37;33.27;;;22.77;;
30010;SDS011;16851;53.564;8.112;2024-03-08T11:23:00;31.53;;;21.83;;
30010;SDS011;16851;53.564;8.112;2024-03-08T11:33:22;31.03;;;23.03;;
30010;SDS011;16851;53.564;8.112;2024-03-08T11:38:24;31.63;;;22.03;;
30010;SDS011;16851;53.564;8.112;2024-03-08T11:43:26;32.07;;;21.70;;
30010;SDS011;16851;53.564;8.112;2024-03-08T11:48:31;29.17;;;24.10;;
30010;SDS011;16851;53.564;8.112;2024-03-08T11:53:33;30.43;;;22.03;;
30010;SDS011;16851;53.564;8.112;2024-03-08T11:58:38;29.97;;;21.43;;
30010;SDS011;16851;53.564;8.112;2024-03-08T12:03:44;29.13;;;21.02;;
30010;SDS011;16851;53.564;8.112;2024-03-08T12:08:48;27.38;;;21.13;;
30010;SDS011;16851;53.564;8.112;2024-03-08T12:13:53;25.45;;;19.00;;
30010;SDS011;16851;53.564;8.112;2024-03-08T12:18:55;28.02;;;20.35;;
30010;SDS011;16851;53.564;8.112;2024-03-08T12:24:06;26.92;;;21.35;;
30010;SDS011;16851;53.564;8.112;2024-03-08T12:29:20;24.35;;;19.35;;
30010;SDS011;16851;53.564;8.112;2024-03-08T12:34:27;30.48;;;20.42;;
30010;SDS011;16851;53.564;8.112;2024-03-08T12:39:54;30.08;;;19.50;;
30010;SDS011;16851;53.564;8.112;2024-03-08T12:44:57;24.73;;;18.58;;
30010;SDS011;16851;53.564;8.112;2024-03-08T12:50:01;31.23;;;20.63;;
30010;SDS011;16851;53.564;8.112;2024-03-08T12:55:07;30.48;;;20.15;;
30010;SDS011;16851;53.564;8.112;2024-03-08T13:00:12;28.27;;;19.65;;
30010;SDS011;16851;53.564;8.112;2024-03-08T13:05:21;29.00;;;19.50;;
30010;SDS011;16851;53.564;8.112;2024-03-08T13:10:26;26.67;;;19.55;;
30010;SDS011;16851;53.564;8.112;2024-03-08T13:15:31;26.05;;;19.67;;
30010;SDS011;16851;53.564;8.112;2024-03-08T13:21:14;24.45;;;18.52;;
30010;SDS011;16851;53.564;8.112;2024-03-08T13:26:16;27.70;;;18.98;;
30010;SDS011;16851;53.564;8.112;2024-03-08T13:31:21;24.02;;;18.75;;
30010;SDS011;16851;53.564;8.112;2024-03-08T13:36:23;24.35;;;18.98;;
30010;SDS011;16851;53.564;8.112;2024-03-08T13:41:32;23.58;;;19.05;;
30010;SDS011;16851;53.564;8.112;2024-03-08T13:46:36;24.88;;;19.42;;
30010;SDS011;16851;53.564;8.112;2024-03-08T13:51:39;27.10;;;18.77;;
30010;SDS011;16851;53.564;8.112;2024-03-08T13:56:40;27.67;;;18.90;;
30010;SDS011;16851;53.564;8.112;2024-03-08T14:01:46;24.80;;;18.75;;
30010;SDS011;16851;53.564;8.112;2024-03-08T14:06:49;23.73;;;17.92;;
30010;SDS011;16851;53.564;8.112;2024-03-08T14:11:52;21.50;;;17.25;;
30010;SDS011;16851;53.564;8.112;2024-03-08T14:17:01;21.65;;;17.25;;
30010;SDS011;16851;53.564;8.112;2024-03-08T14:22:08;21.10;;;17.00;;
30010;SDS011;16851;53.564;8.112;2024-03-08T14:28:00;24.80;;;17.67;;
30010;SDS011;16851;53.564;8.112;2024-03-08T14:33:05;22.85;;;17.45;;
30010;SDS011;16851;53.564;8.112;2024-03-08T14:38:13;22.42;;;17.42;;
30010;SDS011;16851;53.564;8.112;2024-03-08T14:43:17;23.67;;;17.48;;
30010;SDS011;16851;53.564;8.112;2024-03-08T14:48:31;22.52;;;17.20;;
30010;SDS011;16851;53.564;8.112;2024-03-08T14:53:33;20.23;;;16.40;;
30010;SDS011;16851;53.564;8.112;2024-03-08T14:58:37;21.95;;;17.45;;
30010;SDS011;16851;53.564;8.112;2024-03-08T15:03:41;20.08;;;16.17;;
30010;SDS011;16851;53.564;8.112;2024-03-08T15:08:46;24.23;;;18.17;;
30010;SDS011;16851;53.564;8.112;2024-03-08T15:13:49;24.17;;;17.67;;
30010;SDS011;16851;53.564;8.112;2024-03-08T15:18:55;20.30;;;16.15;;
30010;SDS011;16851;53.564;8.112;2024-03-08T15:24:23;21.40;;;17.55;;
30010;SDS011;16851;53.564;8.112;2024-03-08T15:29:29;21.95;;;17.38;;
30010;SDS011;16851;53.564;8.112;2024-03-08T15:40:21;22.10;;;17.35;;
30010;SDS011;16851;53.564;8.112;2024-03-08T15:45:26;22.85;;;16.83;;
30010;SDS011;16851;53.564;8.112;2024-03-08T15:50:28;24.52;;;17.40;;
30010;SDS011;16851;53.564;8.112;2024-03-08T15:55:33;26.30;;;19.02;;
30010;SDS011;16851;53.564;8.112;2024-03-08T16:00:39;24.17;;;18.23;;
30010;SDS011;16851;53.564;8.112;2024-03-08T16:05:48;24.45;;;18.02;;
30010;SDS011;16851;53.564;8.112;2024-03-08T16:10:53;23.75;;;17.25;;
30010;SDS011;16851;53.564;8.112;2024-03-08T16:15:59;24.60;;;17.60;;
30010;SDS011;16851;53.564;8.112;2024-03-08T16:21:01;26.17;;;18.45;;
30010;SDS011;16851;53.564;8.112;2024-03-08T16:26:06;23.52;;;17.48;;
30010;SDS011;16851;53.564;8.112;2024-03-08T16:31:12;26.40;;;17.58;;
30010;SDS011;16851;53.564;8.112;2024-03-08T16:36:16;23.65;;;17.60;;
30010;SDS011;16851;53.564;8.112;2024-03-08T16:41:22;23.25;;;16.85;;
30010;SDS011;16851;53.564;8.112;2024-03-08T16:46:26;23.27;;;17.92;;
30010;SDS011;16851;53.564;8.112;2024-03-08T16:51:34;24.90;;;16.30;;
30010;SDS011;16851;53.564;8.112;2024-03-08T16:56:39;22.33;;;15.73;;
30010;SDS011;16851;53.564;8.112;2024-03-08T17:01:46;23.67;;;15.87;;
30010;SDS011;16851;53.564;8.112;2024-03-08T17:06:54;20.53;;;14.20;;
30010;SDS011;16851;53.564;8.112;2024-03-08T17:11:59;23.10;;;16.63;;
30010;SDS011;16851;53.564;8.112;2024-03-08T17:17:03;21.93;;;14.83;;
30010;SDS011;16851;53.564;8.112;2024-03-08T17:22:09;20.83;;;13.87;;
30010;SDS011;16851;53.564;8.112;2024-03-08T17:27:16;22.17;;;14.07;;
30010;SDS011;16851;53.564;8.112;2024-03-08T17:32:20;20.40;;;13.82;;
30010;SDS011;16851;53.564;8.112;2024-03-08T17:37:26;21.27;;;14.07;;
30010;SDS011;16851;53.564;8.112;2024-03-08T17:42:30;23.17;;;14.47;;
30010;SDS011;16851;53.564;8.112;2024-03-08T17:47:33;21.03;;;13.40;;
30010;SDS011;16851;53.564;8.112;2024-03-08T17:52:35;21.77;;;14.13;;
30010;SDS011;16851;53.564;8.112;2024-03-08T17:57:42;22.17;;;14.13;;
30010;SDS011;16851;53.564;8.112;2024-03-08T18:02:47;21.37;;;14.57;;
30010;SDS011;16851;53.564;8.112;2024-03-08T18:07:52;21.17;;;14.07;;
30010;SDS011;16851;53.564;8.112;2024-03-08T18:13:08;22.33;;;14.53;;
30010;SDS011;16851;53.564;8.112;2024-03-08T18:18:20;23.17;;;14.37;;
30010;SDS011;16851;53.564;8.112;2024-03-08T18:23:24;24.40;;;15.67;;
30010;SDS011;16851;53.564;8.112;2024-03-08T18:28:26;24.13;;;15.50;;
30010;SDS011;16851;53.564;8.112;2024-03-08T18:33:28;20.77;;;14.47;;
30010;SDS011;16851;53.564;8.112;2024-03-08T18:38:34;22.50;;;14.60;;
30010;SDS011;16851;53.564;8.112;2024-03-08T18:43:38;23.07;;;15.67;;
30010;SDS011;16851;53.564;8.112;2024-03-08T18:48:40;22.53;;;14.67;;
30010;SDS011;16851;53.564;8.112;2024-03-08T18:53:45;22.63;;;14.47;;
30010;SDS011;16851;53.564;8.112;2024-03-08T18:58:47;22.10;;;15.00;;
30010;SDS011;16851;53.564;8.112;2024-03-08T19:03:49;23.80;;;16.10;;
30010;SDS011;16851;53.564;8.112;2024-03-08T19:08:53;23.17;;;15.83;;
30010;SDS011;16851;53.564;8.112;2024-03-08T19:13:56;24.80;;;15.40;;
30010;SDS011;16851;53.564;8.112;2024-03-08T19:19:01;26.20;;;15.53;;
30010;SDS011;16851;53.564;8.112;2024-03-08T19:24:08;27.60;;;17.83;;
30010;SDS011;16851;53.564;8.112;2024-03-08T19:29:13;25.77;;;15.93;;
30010;SDS011;16851;53.564;8.112;2024-03-08T19:34:20;29.77;;;17.73;;
30010;SDS011;16851;53.564;8.112;2024-03-08T19:39:30;27.63;;;17.00;;
30010;SDS011;16851;53.564;8.112;2024-03-08T19:44:32;27.90;;;17.57;;
30010;SDS011;16851;53.564;8.112;2024-03-08T19:49:34;30.00;;;18.53;;
30010;SDS011;16851;53.564;8.112;2024-03-08T19:54:37;31.53;;;18.17;;
30010;SDS011;16851;53.564;8.112;2024-03-08T19:59:42;30.20;;;18.60;;
30010;SDS011;16851;53.564;8.112;2024-03-08T20:04:46;28.07;;;18.00;;
30010;SDS011;16851;53.564;8.112;2024-03-08T20:09:48;28.43;;;17.13;;
30010;SDS011;16851;53.564;8.112;2024-03-08T20:14:52;29.30;;;17.93;;
30010;SDS011;16851;53.564;8.112;2024-03-08T20:19:54;28.50;;;17.83;;
30010;SDS011;16851;53.564;8.112;2024-03-08T20:24:59;29.57;;;17.47;;
30010;SDS011;16851;53.564;8.112;2024-03-08T20:30:02;27.67;;;17.50;;
30010;SDS011;16851;53.564;8.112;2024-03-08T20:35:13;36.27;;;18.53;;
30010;SDS011;16851;53.564;8.112;2024-03-08T20:40:15;27.37;;;17.70;;
30010;SDS011;16851;53.564;8.112;2024-03-08T20:45:22;25.97;;;16.60;;
30010;SDS011;16851;53.564;8.112;2024-03-08T20:50:31;28.47;;;17.63;;
30010;SDS011;16851;53.564;8.112;2024-03-08T20:55:36;32.30;;;18.33;;
30010;SDS011;16851;53.564;8.112;2024-03-08T21:00:44;24.83;;;18.67;;
30010;SDS011;16851;53.564;8.112;2024-03-08T21:05:56;30.60;;;18.90;;
30010;SDS011;16851;53.564;8.112;2024-03-08T21:11:03;27.73;;;17.03;;
30010;SDS011;16851;53.564;8.112;2024-03-08T21:16:06;25.93;;;17.20;;
30010;SDS011;16851;53.564;8.112;2024-03-08T21:21:08;33.60;;;19.23;;
30010;SDS011;16851;53.564;8.112;2024-03-08T21:26:10;32.13;;;21.57;;
30010;SDS011;16851;53.564;8.112;2024-03-08T21:31:16;30.60;;;19.60;;
30010;SDS011;16851;53.564;8.112;2024-03-08T21:36:18;32.90;;;19.77;;
30010;SDS011;16851;53.564;8.112;2024-03-08T21:41:22;31.57;;;19.83;;
30010;SDS011;16851;53.564;8.112;2024-03-08T21:46:27;32.53;;;19.57;;
30010;SDS011;16851;53.564;8.112;2024-03-08T21:51:28;35.73;;;20.57;;
30010;SDS011;16851;53.564;8.112;2024-03-08T21:56:33;34.67;;;20.20;;
30010;SDS011;16851;53.564;8.112;2024-03-08T22:01:38;34.00;;;19.77;;
30010;SDS011;16851;53.564;8.112;2024-03-08T22:06:42;35.47;;;20.17;;
30010;SDS011;16851;53.564;8.112;2024-03-08T22:11:47;30.83;;;20.27;;
30010;SDS011;16851;53.564;8.112;2024-03-08T22:16:50;34.30;;;20.03;;
30010;SDS011;16851;53.564;8.112;2024-03-08T22:21:55;33.33;;;20.00;;
30010;SDS011;16851;53.564;8.112;2024-03-08T22:26:57;32.10;;;19.97;;
30010;SDS011;16851;53.564;8.112;2024-03-08T22:32:02;30.97;;;19.57;;
30010;SDS011;16851;53.564;8.112;2024-03-08T22:37:04;34.97;;;20.70;;
30010;SDS011;16851;53.564;8.112;2024-03-08T22:42:16;32.43;;;21.00;;
30010;SDS011;16851;53.564;8.112;2024-03-08T22:47:18;32.13;;;20.83;;
30010;SDS011;16851;53.564;8.112;2024-03-08T22:52:24;32.53;;;19.60;;
30010;SDS011;16851;53.564;8.112;2024-03-08T22:57:31;32.50;;;20.03;;
30010;SDS011;16851;53.564;8.112;2024-03-08T23:02:36;35.10;;;20.90;;
30010;SDS011;16851;53.564;8.112;2024-03-08T23:07:39;29.90;;;18.90;;
30010;SDS011;16851;53.564;8.112;2024-03-08T23:12:42;37.33;;;20.73;;
30010;SDS011;16851;53.564;8.112;2024-03-08T23:17:46;31.70;;;20.03;;
30010;SDS011;16851;53.564;8.112;2024-03-08T23:22:51;31.10;;;18.97;;
30010;SDS011;16851;53.564;8.112;2024-03-08T23:27:56;35.33;;;20.20;;
30010;SDS011;16851;53.564;8.112;2024-03-08T23:32:59;32.63;;;20.83;;
30010;SDS011;16851;53.564;8.112;2024-03-08T23:38:02;31.30;;;19.57;;
30010;SDS011;16851;53.564;8.112;2024-03-08T23:43:09;36.90;;;22.10;;
30010;SDS011;16851;53.564;8.112;2024-03-08T23:48:16;33.27;;;19.50;;
30010;SDS011;16851;53.564;8.112;2024-03-08T23:53:18;32.43;;;19.50;;
30010;SDS011;16851;53.564;8.112;2024-03-08T23:58:21;34.03;;;20.20;;
